createdAt,value
2019-03-21T00:01:18.276Z,2.70
2019-03-21T00:03:48.743Z,2.77
2019-03-21T00:06:17.570Z,2.70
2019-03-21T00:08:47.636Z,3.27
2019-03-21T00:11:52.783Z,2.90
2019-03-21T00:14:32.385Z,2.80
2019-03-21T00:17:01.191Z,2.73
2019-03-21T00:19:30.084Z,2.73
2019-03-21T00:21:58.952Z,2.63
2019-03-21T00:24:27.829Z,2.90
2019-03-21T00:26:56.658Z,3.00
2019-03-21T00:29:25.532Z,2.80
2019-03-21T00:31:54.399Z,2.90
2019-03-21T00:34:23.238Z,2.70
2019-03-21T00:36:52.100Z,2.77
2019-03-21T00:39:28.688Z,2.80
2019-03-21T00:41:51.443Z,3.53
2019-03-21T00:44:20.320Z,3.07
2019-03-21T00:46:49.187Z,3.17
2019-03-21T00:49:18.016Z,3.37
2019-03-21T00:51:46.883Z,3.07
2019-03-21T00:54:15.755Z,3.03
2019-03-21T00:56:44.584Z,3.50
2019-03-21T00:59:13.456Z,2.80
2019-03-21T01:01:42.435Z,2.97
2019-03-21T01:04:11.262Z,3.43
2019-03-21T01:06:40.126Z,3.40
2019-03-21T01:09:12.071Z,3.60
2019-03-21T01:11:40.898Z,3.03
2019-03-21T01:14:09.775Z,3.10
2019-03-21T01:16:38.634Z,2.87
2019-03-21T01:19:07.459Z,3.30
2019-03-21T01:21:36.336Z,3.00
2019-03-21T01:24:05.505Z,3.07
2019-03-21T01:26:34.343Z,2.93
2019-03-21T01:29:03.239Z,2.97
2019-03-21T01:31:32.076Z,3.00
2019-03-21T01:34:00.908Z,2.77
2019-03-21T01:36:29.780Z,3.00
2019-03-21T01:38:58.657Z,3.40
2019-03-21T01:41:27.502Z,2.97
2019-03-21T01:43:56.361Z,3.00
2019-03-21T01:46:26.627Z,2.60
2019-03-21T01:48:55.468Z,3.03
2019-03-21T01:51:24.327Z,2.93
2019-03-21T01:53:54.896Z,2.97
2019-03-21T01:56:23.721Z,3.30
2019-03-21T01:58:52.600Z,3.00
2019-03-21T02:01:21.476Z,3.20
2019-03-21T02:03:50.312Z,2.87
2019-03-21T02:06:19.183Z,2.90
2019-03-21T02:08:48.053Z,2.60
2019-03-21T02:11:16.880Z,2.97
2019-03-21T02:13:45.757Z,2.30
2019-03-21T02:16:14.627Z,2.93
2019-03-21T02:18:43.563Z,2.97
2019-03-21T02:21:12.427Z,2.90
2019-03-21T02:23:41.295Z,2.63
2019-03-21T02:26:10.634Z,2.97
2019-03-21T02:28:39.499Z,2.60
2019-03-21T02:31:08.393Z,3.23
2019-03-21T02:33:42.516Z,3.10
2019-03-21T02:36:13.185Z,2.93
2019-03-21T02:38:42.154Z,3.13
2019-03-21T02:41:16.207Z,3.03
2019-03-21T02:43:45.077Z,2.93
2019-03-21T02:46:13.902Z,2.90
2019-03-21T02:48:42.771Z,2.63
2019-03-21T02:51:11.641Z,2.87
2019-03-21T02:53:40.468Z,2.50
2019-03-21T02:56:12.274Z,2.83
2019-03-21T02:58:41.140Z,2.73
2019-03-21T03:01:09.981Z,3.00
2019-03-21T03:03:38.839Z,2.80
2019-03-21T03:06:07.708Z,2.97
2019-03-21T03:08:36.553Z,3.20
2019-03-21T03:11:10.805Z,3.00
2019-03-21T03:13:39.844Z,2.80
2019-03-21T03:16:08.706Z,2.90
2019-03-21T03:18:37.548Z,2.90
2019-03-21T03:21:06.407Z,2.73
2019-03-21T03:23:35.247Z,2.80
2019-03-21T03:26:04.102Z,2.90
2019-03-21T03:28:47.161Z,3.30
2019-03-21T03:31:16.141Z,2.43
2019-03-21T03:33:45.309Z,2.77
2019-03-21T03:36:15.927Z,2.43
2019-03-21T03:38:44.809Z,2.67
2019-03-21T03:41:18.872Z,3.30
2019-03-21T03:43:47.768Z,2.77
2019-03-21T03:46:16.605Z,3.20
2019-03-21T03:48:45.420Z,2.50
2019-03-21T03:51:14.283Z,2.77
2019-03-21T03:53:43.148Z,2.83
2019-03-21T03:56:11.975Z,3.57
2019-03-21T03:58:43.785Z,3.10
2019-03-21T04:01:12.755Z,3.03
2019-03-21T04:03:41.582Z,3.20
2019-03-21T04:06:10.526Z,3.53
2019-03-21T04:08:39.419Z,2.70
2019-03-21T04:11:08.248Z,3.20
2019-03-21T04:13:37.138Z,2.60
2019-03-21T04:16:05.939Z,2.93
2019-03-21T04:18:34.771Z,3.27
2019-03-21T04:21:12.888Z,2.70
2019-03-21T04:23:41.762Z,2.83
2019-03-21T04:26:19.347Z,2.97
2019-03-21T04:28:48.229Z,2.90
2019-03-21T04:31:17.645Z,3.60
2019-03-21T04:33:47.906Z,3.40
2019-03-21T04:36:16.766Z,3.00
2019-03-21T04:38:45.605Z,2.90
2019-03-21T04:41:14.472Z,3.07
2019-03-21T04:43:43.338Z,2.90
2019-03-21T04:46:12.162Z,3.33
2019-03-21T04:48:41.035Z,2.70
2019-03-21T04:51:09.946Z,3.27
2019-03-21T04:53:38.734Z,3.53
2019-03-21T04:56:07.598Z,3.33
2019-03-21T04:58:36.469Z,3.27
2019-03-21T05:01:05.301Z,3.17
2019-03-21T05:03:34.262Z,3.53
2019-03-21T05:06:03.139Z,3.57
2019-03-21T05:08:31.959Z,3.20
2019-03-21T05:11:00.830Z,3.13
2019-03-21T05:13:29.691Z,2.90
2019-03-21T05:15:58.523Z,3.20
2019-03-21T05:18:45.580Z,3.20
2019-03-21T05:21:20.191Z,3.17
2019-03-21T05:23:49.046Z,2.87
2019-03-21T05:26:17.915Z,2.87
2019-03-21T05:28:46.744Z,2.90
2019-03-21T05:31:21.248Z,3.03
2019-03-21T05:33:50.102Z,3.10
2019-03-21T05:36:18.940Z,3.23
2019-03-21T05:38:47.809Z,2.77
2019-03-21T05:41:22.793Z,2.90
2019-03-21T05:44:06.882Z,3.37
2019-03-21T05:46:35.755Z,3.23
2019-03-21T05:49:04.578Z,3.17
2019-03-21T05:51:33.442Z,2.90
2019-03-21T05:54:02.311Z,3.37
2019-03-21T05:56:31.145Z,3.03
2019-03-21T05:59:00.007Z,2.90
2019-03-21T06:01:28.879Z,3.00
2019-03-21T06:03:57.698Z,3.13
2019-03-21T06:06:29.499Z,3.40
2019-03-21T06:08:58.362Z,3.17
2019-03-21T06:11:27.298Z,3.57
2019-03-21T06:13:56.190Z,2.90
2019-03-21T06:16:25.034Z,3.00
2019-03-21T06:18:59.538Z,2.97
2019-03-21T06:21:33.943Z,3.23
2019-03-21T06:24:11.807Z,3.47
2019-03-21T06:26:52.637Z,3.43
2019-03-21T06:29:21.506Z,4.20
2019-03-21T06:31:50.380Z,3.27
2019-03-21T06:34:19.192Z,3.33
2019-03-21T06:36:48.058Z,3.20
2019-03-21T06:39:16.932Z,3.57
2019-03-21T06:41:45.758Z,3.90
2019-03-21T06:44:14.629Z,3.63
2019-03-21T06:46:49.306Z,3.80
2019-03-21T06:49:13.971Z,3.90
2019-03-21T06:51:42.831Z,4.10
2019-03-21T06:54:11.691Z,4.00
2019-03-21T06:56:40.519Z,3.57
2019-03-21T06:59:09.384Z,3.83
2019-03-21T07:01:38.246Z,3.53
2019-03-21T07:04:07.709Z,3.40
2019-03-21T07:06:36.638Z,4.13
2019-03-21T07:09:08.104Z,3.70
2019-03-21T07:11:36.927Z,4.03
2019-03-21T07:14:05.795Z,5.37
2019-03-21T07:16:34.654Z,5.50
2019-03-21T07:19:03.487Z,4.30
2019-03-21T07:21:32.339Z,3.20
2019-03-21T07:24:01.304Z,3.30
2019-03-21T07:26:30.129Z,3.63
2019-03-21T07:28:58.987Z,3.67
2019-03-21T07:31:27.852Z,4.30
2019-03-21T07:33:56.684Z,4.67
2019-03-21T07:36:26.363Z,4.23
2019-03-21T07:38:55.306Z,4.57
2019-03-21T07:41:24.171Z,4.23
2019-03-21T07:43:52.994Z,4.40
2019-03-21T07:46:32.043Z,4.60
2019-03-21T07:49:01.102Z,4.30
2019-03-21T07:51:29.923Z,4.40
2019-03-21T07:53:59.761Z,4.47
2019-03-21T07:56:28.627Z,3.87
2019-03-21T07:58:57.916Z,4.57
2019-03-21T08:01:26.923Z,4.53
2019-03-21T08:03:55.786Z,4.33
2019-03-21T08:06:24.614Z,4.40
2019-03-21T08:08:53.487Z,4.60
2019-03-21T08:11:22.342Z,4.73
2019-03-21T08:13:51.173Z,4.90
2019-03-21T08:16:20.040Z,4.40
2019-03-21T08:18:48.907Z,4.17
2019-03-21T08:21:17.739Z,4.60
2019-03-21T08:23:46.600Z,4.90
2019-03-21T08:26:15.454Z,4.10
2019-03-21T08:28:44.286Z,4.00
2019-03-21T08:31:14.342Z,4.30
2019-03-21T08:33:43.512Z,4.37
2019-03-21T08:36:12.336Z,4.03
2019-03-21T08:38:41.203Z,3.30
2019-03-21T08:41:10.267Z,3.77
2019-03-21T08:43:39.099Z,4.60
2019-03-21T08:46:07.974Z,3.87
2019-03-21T08:48:36.829Z,3.67
2019-03-21T08:51:08.672Z,3.87
2019-03-21T08:53:36.367Z,3.80
2019-03-21T08:56:05.623Z,3.90
2019-03-21T08:58:34.451Z,4.27
2019-03-21T09:01:03.321Z,3.50
2019-03-21T09:03:32.184Z,3.50
2019-03-21T09:06:01.003Z,3.50
2019-03-21T09:08:29.876Z,3.40
2019-03-21T09:10:58.736Z,3.40
2019-03-21T09:13:27.567Z,3.10
2019-03-21T09:15:56.417Z,3.40
2019-03-21T09:18:25.279Z,3.50
2019-03-21T09:20:54.094Z,3.57
2019-03-21T09:23:22.958Z,4.07
2019-03-21T09:25:51.816Z,3.73
2019-03-21T09:28:20.651Z,3.30
2019-03-21T09:30:50.612Z,3.50
2019-03-21T09:33:19.687Z,3.00
2019-03-21T09:35:48.502Z,3.20
2019-03-21T09:38:17.384Z,3.20
2019-03-21T09:40:46.247Z,2.70
2019-03-21T09:43:15.078Z,2.80
2019-03-21T09:45:43.940Z,3.13
2019-03-21T09:48:12.806Z,3.00
2019-03-21T09:50:41.641Z,2.80
2019-03-21T09:53:10.500Z,2.40
2019-03-21T09:55:39.375Z,2.50
2019-03-21T09:58:08.204Z,2.07
2019-03-21T10:00:37.671Z,2.53
2019-03-21T10:03:07.338Z,2.13
2019-03-21T10:05:36.177Z,2.60
2019-03-21T10:08:05.437Z,2.33
2019-03-21T10:10:34.910Z,2.27
2019-03-21T10:13:04.604Z,2.93
2019-03-21T10:15:33.508Z,2.43
2019-03-21T10:18:02.384Z,2.70
2019-03-21T10:20:31.207Z,2.40
2019-03-21T10:23:00.070Z,3.00
2019-03-21T10:25:28.937Z,3.03
2019-03-21T10:27:57.767Z,3.17
2019-03-21T10:30:37.738Z,3.20
2019-03-21T10:33:08.305Z,3.50
2019-03-21T10:35:37.133Z,2.80
2019-03-21T10:38:06.495Z,3.10
2019-03-21T10:40:35.879Z,2.80
2019-03-21T10:43:05.402Z,3.03
2019-03-21T10:45:34.472Z,2.60
2019-03-21T10:48:03.343Z,2.93
2019-03-21T10:50:36.636Z,2.93
2019-03-21T10:53:06.003Z,3.17
2019-03-21T10:55:34.831Z,3.33
2019-03-21T10:58:04.301Z,2.40
2019-03-21T11:00:33.171Z,2.80
2019-03-21T11:03:02.000Z,3.17
2019-03-21T11:05:30.866Z,2.80
2019-03-21T11:07:59.736Z,2.90
2019-03-21T11:10:28.558Z,3.03
2019-03-21T11:12:57.434Z,3.20
2019-03-21T11:15:26.298Z,2.90
2019-03-21T11:17:56.038Z,3.23
2019-03-21T11:20:33.306Z,3.03
2019-03-21T11:23:02.263Z,2.63
2019-03-21T11:25:31.093Z,2.90
2019-03-21T11:27:59.954Z,3.30
2019-03-21T11:30:34.341Z,2.43
2019-03-21T11:33:03.312Z,3.30
2019-03-21T11:35:33.178Z,2.40
2019-03-21T11:38:02.103Z,2.70
2019-03-21T11:40:30.966Z,2.87
2019-03-21T11:42:59.932Z,2.60
2019-03-21T11:45:28.774Z,3.13
2019-03-21T11:47:59.697Z,2.47
2019-03-21T11:50:28.170Z,2.30
2019-03-21T11:52:56.977Z,2.90
2019-03-21T11:55:25.834Z,2.67
2019-03-21T11:57:54.699Z,2.50
2019-03-21T12:00:23.540Z,2.70
2019-03-21T12:02:52.401Z,2.63
2019-03-21T12:05:21.268Z,2.93
2019-03-21T12:07:50.101Z,3.33
2019-03-21T12:10:19.058Z,2.70
2019-03-21T12:12:47.919Z,2.70
2019-03-21T12:15:17.251Z,2.83
2019-03-21T12:17:46.115Z,3.17
2019-03-21T12:20:29.396Z,2.60
2019-03-21T12:22:58.260Z,2.60
2019-03-21T12:25:27.180Z,3.00
2019-03-21T12:27:55.947Z,2.77
2019-03-21T12:30:30.527Z,2.53
2019-03-21T12:32:59.498Z,2.57
2019-03-21T12:35:28.326Z,2.30
2019-03-21T12:37:57.186Z,2.50
2019-03-21T12:40:26.102Z,2.53
2019-03-21T12:42:54.996Z,2.60
2019-03-21T12:45:23.884Z,2.07
2019-03-21T12:47:52.866Z,2.30
2019-03-21T12:50:21.667Z,2.20
2019-03-21T12:52:50.543Z,2.00
2019-03-21T12:55:19.398Z,2.00
2019-03-21T12:57:48.236Z,2.30
2019-03-21T13:00:22.779Z,2.07
2019-03-21T13:02:51.739Z,2.20
2019-03-21T13:05:33.863Z,2.62
2019-03-21T13:08:02.734Z,2.00
2019-03-21T13:10:31.576Z,1.83
2019-03-21T13:13:00.433Z,2.20
2019-03-21T13:15:32.994Z,1.83
2019-03-21T13:18:01.829Z,1.57
2019-03-21T13:20:30.691Z,1.87
2019-03-21T13:22:59.568Z,1.70
2019-03-21T13:25:28.395Z,1.80
2019-03-21T13:27:57.306Z,1.60
2019-03-21T13:30:26.161Z,1.67
2019-03-21T13:32:54.995Z,1.50
2019-03-21T13:35:32.672Z,1.60
2019-03-21T13:37:54.363Z,1.70
2019-03-21T13:40:23.226Z,1.63
2019-03-21T13:42:52.064Z,1.40
2019-03-21T13:45:20.950Z,1.60
2019-03-21T13:47:49.763Z,1.53
2019-03-21T13:50:18.641Z,1.30
2019-03-21T13:52:47.507Z,1.27
2019-03-21T13:55:16.431Z,1.37
2019-03-21T13:57:45.296Z,1.27
2019-03-21T14:00:19.803Z,1.47
2019-03-21T14:02:48.666Z,1.50
2019-03-21T14:05:17.585Z,1.50
2019-03-21T14:07:46.477Z,1.70
2019-03-21T14:10:15.778Z,1.30
2019-03-21T14:12:44.670Z,1.20
2019-03-21T14:15:17.938Z,1.30
2019-03-21T14:17:46.956Z,1.50
2019-03-21T14:20:16.462Z,1.40
2019-03-21T14:22:45.354Z,1.20
2019-03-21T14:25:15.006Z,1.20
2019-03-21T14:27:45.660Z,1.07
2019-03-21T14:30:16.635Z,1.10
2019-03-21T14:32:45.505Z,1.03
2019-03-21T14:35:15.011Z,1.10
2019-03-21T14:37:43.880Z,1.30
2019-03-21T14:40:14.447Z,1.30
2019-03-21T14:42:43.676Z,1.63
2019-03-21T14:45:17.070Z,1.20
2019-03-21T14:47:45.945Z,1.53
2019-03-21T14:50:17.944Z,1.20
2019-03-21T14:52:46.802Z,1.20
2019-03-21T14:55:16.120Z,2.23
2019-03-21T14:57:44.933Z,1.20
2019-03-21T15:00:18.096Z,1.20
2019-03-21T15:02:46.991Z,1.30
2019-03-21T15:05:16.923Z,1.30
2019-03-21T15:07:45.799Z,1.60
2019-03-21T15:10:18.435Z,1.40
2019-03-21T15:12:47.301Z,1.20
2019-03-21T15:15:16.672Z,1.50
2019-03-21T15:17:46.299Z,1.27
2019-03-21T15:20:18.522Z,1.40
2019-03-21T15:22:47.385Z,1.23
2019-03-21T15:25:16.716Z,1.37
2019-03-21T15:27:45.579Z,1.33
2019-03-21T15:30:16.699Z,1.10
2019-03-21T15:32:45.752Z,1.60
2019-03-21T15:35:17.028Z,1.20
2019-03-21T15:37:45.898Z,1.67
2019-03-21T15:40:17.217Z,1.53
2019-03-21T15:42:46.077Z,1.50
2019-03-21T15:45:22.729Z,1.50
2019-03-21T15:47:47.768Z,1.43
2019-03-21T15:50:28.517Z,1.30
2019-03-21T15:52:57.982Z,1.50
2019-03-21T15:55:26.807Z,1.40
2019-03-21T15:57:55.668Z,1.70
2019-03-21T16:00:33.151Z,1.70
2019-03-21T16:03:02.134Z,1.40
2019-03-21T16:05:30.995Z,1.40
2019-03-21T16:07:59.824Z,1.53
2019-03-21T16:10:28.690Z,1.30
2019-03-21T16:12:57.555Z,1.50
2019-03-21T16:15:26.374Z,1.40
2019-03-21T16:17:55.259Z,1.50
2019-03-21T16:20:24.108Z,1.50
2019-03-21T16:22:52.951Z,1.37
2019-03-21T16:25:21.827Z,1.43
2019-03-21T16:27:50.729Z,1.20
2019-03-21T16:30:19.559Z,1.40
2019-03-21T16:32:48.432Z,1.47
2019-03-21T16:35:17.296Z,1.60
2019-03-21T16:37:46.128Z,1.30
2019-03-21T16:40:16.095Z,1.23
2019-03-21T16:42:44.963Z,1.30
2019-03-21T16:45:14.987Z,1.30
2019-03-21T16:47:43.858Z,1.40
2019-03-21T16:50:13.910Z,1.30
2019-03-21T16:52:42.759Z,1.40
2019-03-21T16:55:12.727Z,1.23
2019-03-21T16:57:41.595Z,1.30
2019-03-21T17:00:18.330Z,1.43
2019-03-21T17:02:47.869Z,1.20
2019-03-21T17:05:16.702Z,1.20
2019-03-21T17:07:45.610Z,1.20
2019-03-21T17:10:16.635Z,1.27
2019-03-21T17:12:45.572Z,1.30
2019-03-21T17:15:14.747Z,0.90
2019-03-21T17:17:43.648Z,1.10
2019-03-21T17:20:12.830Z,1.30
2019-03-21T17:22:41.668Z,1.20
2019-03-21T17:25:11.336Z,1.20
2019-03-21T17:27:40.157Z,1.27
2019-03-21T17:30:14.536Z,1.30
2019-03-21T17:32:43.407Z,1.37
2019-03-21T17:35:12.738Z,1.50
2019-03-21T17:37:41.607Z,1.13
2019-03-21T17:40:13.173Z,1.43
2019-03-21T17:42:42.038Z,1.27
2019-03-21T17:45:18.655Z,1.20
2019-03-21T17:47:47.522Z,1.40
2019-03-21T17:50:18.171Z,1.40
2019-03-21T17:52:47.350Z,1.37
2019-03-21T17:55:16.912Z,1.40
2019-03-21T17:57:45.733Z,1.23
2019-03-21T18:00:18.629Z,1.20
2019-03-21T18:02:47.482Z,1.07
2019-03-21T18:05:16.322Z,1.27
2019-03-21T18:07:45.171Z,1.23
2019-03-21T18:10:25.601Z,1.30
2019-03-21T18:12:54.468Z,1.50
2019-03-21T18:15:23.335Z,1.70
2019-03-21T18:17:52.167Z,1.23
2019-03-21T18:20:21.028Z,1.10
2019-03-21T18:22:49.893Z,0.83
2019-03-21T18:25:18.719Z,1.23
2019-03-21T18:27:47.575Z,1.03
2019-03-21T18:30:16.434Z,1.00
2019-03-21T18:32:45.258Z,1.20
2019-03-21T18:35:14.240Z,1.07
2019-03-21T18:37:43.139Z,0.90
2019-03-21T18:40:12.564Z,1.23
2019-03-21T18:42:41.420Z,1.03
2019-03-21T18:45:13.121Z,1.20
2019-03-21T18:47:41.924Z,2.23
2019-03-21T18:50:13.621Z,1.17
2019-03-21T18:52:42.483Z,1.40
2019-03-21T18:55:12.003Z,1.20
2019-03-21T18:57:40.905Z,1.10
2019-03-21T19:00:20.608Z,1.20
2019-03-21T19:02:49.470Z,1.20
2019-03-21T19:05:18.334Z,1.07
2019-03-21T19:07:47.160Z,1.40
2019-03-21T19:10:16.623Z,1.50
2019-03-21T19:12:45.598Z,1.67
2019-03-21T19:15:17.759Z,1.87
2019-03-21T19:17:46.623Z,1.67
2019-03-21T19:20:18.094Z,1.80
2019-03-21T19:22:47.516Z,1.97
2019-03-21T19:25:18.928Z,2.27
2019-03-21T19:27:47.983Z,2.20
2019-03-21T19:30:19.046Z,2.43
2019-03-21T19:33:03.030Z,2.77
2019-03-21T19:35:31.912Z,2.20
2019-03-21T19:38:00.811Z,2.20
2019-03-21T19:40:29.664Z,2.20
2019-03-21T19:43:07.802Z,2.53
2019-03-21T19:45:36.668Z,2.33
2019-03-21T19:48:05.491Z,3.70
2019-03-21T19:50:34.365Z,3.10
2019-03-21T19:53:03.181Z,3.10
2019-03-21T19:55:32.040Z,3.10
2019-03-21T19:58:00.851Z,3.87
2019-03-21T20:00:29.722Z,4.37
2019-03-21T20:03:10.571Z,4.00
2019-03-21T20:05:39.495Z,4.00
2019-03-21T20:08:08.291Z,4.47
2019-03-21T20:10:37.164Z,5.63
2019-03-21T20:13:05.982Z,5.93
2019-03-21T20:15:34.850Z,6.07
2019-03-21T20:18:03.787Z,5.20
2019-03-21T20:20:32.664Z,5.53
2019-03-21T20:23:01.487Z,5.43
2019-03-21T20:25:41.940Z,5.57
2019-03-21T20:28:00.860Z,5.00
2019-03-21T20:30:29.694Z,5.63
2019-03-21T20:32:58.558Z,5.37
2019-03-21T20:35:27.394Z,5.43
2019-03-21T20:37:56.248Z,4.73
2019-03-21T20:40:25.075Z,4.27
2019-03-21T20:42:53.939Z,4.40
2019-03-21T20:45:23.466Z,6.70
2019-03-21T20:47:52.330Z,6.00
2019-03-21T20:50:21.164Z,8.37
2019-03-21T20:52:50.032Z,6.10
2019-03-21T20:55:18.853Z,5.40
2019-03-21T20:57:47.714Z,5.50
2019-03-21T21:00:23.925Z,5.43
2019-03-21T21:02:53.389Z,5.47
2019-03-21T21:05:23.471Z,5.07
2019-03-21T21:07:52.537Z,5.70
2019-03-21T21:10:24.369Z,6.07
2019-03-21T21:12:53.244Z,5.67
2019-03-21T21:15:22.254Z,5.17
2019-03-21T21:17:51.102Z,5.93
2019-03-21T21:20:19.959Z,5.77
2019-03-21T21:22:48.792Z,5.50
2019-03-21T21:25:17.714Z,4.10
2019-03-21T21:27:49.980Z,3.93
2019-03-21T21:30:19.930Z,3.70
2019-03-21T21:32:52.041Z,3.57
2019-03-21T21:35:20.936Z,3.23
2019-03-21T21:37:49.771Z,3.47
2019-03-21T21:40:18.906Z,3.10
2019-03-21T21:42:47.882Z,3.97
2019-03-21T21:45:19.039Z,3.70
2019-03-21T21:47:47.819Z,4.07
2019-03-21T21:50:18.678Z,3.50
2019-03-21T21:52:47.656Z,3.87
2019-03-21T21:55:16.583Z,4.20
2019-03-21T21:57:45.442Z,3.67
2019-03-21T22:00:17.379Z,4.03
2019-03-21T22:02:46.236Z,4.00
2019-03-21T22:05:15.171Z,4.03
2019-03-21T22:07:44.045Z,4.30
2019-03-21T22:10:13.767Z,5.00
2019-03-21T22:12:42.757Z,4.47
2019-03-21T22:15:14.162Z,3.50
2019-03-21T22:17:43.121Z,4.10
2019-03-21T22:20:13.603Z,3.90
2019-03-21T22:22:42.677Z,3.93
2019-03-21T22:25:11.728Z,4.17
2019-03-21T22:27:40.560Z,3.83
2019-03-21T22:30:12.128Z,4.33
2019-03-21T22:32:41.010Z,4.30
2019-03-21T22:35:10.311Z,5.00
2019-03-21T22:37:39.730Z,4.80
2019-03-21T22:40:10.874Z,5.63
2019-03-21T22:42:39.903Z,6.13
2019-03-21T22:45:16.960Z,7.33
2019-03-21T22:47:45.986Z,6.77
2019-03-21T22:50:17.993Z,6.30
2019-03-21T22:52:47.190Z,5.70
2019-03-21T22:55:16.116Z,4.80
2019-03-21T22:57:45.031Z,4.70
2019-03-21T23:00:23.185Z,4.77
2019-03-21T23:02:52.209Z,4.67
2019-03-21T23:05:21.557Z,4.40
2019-03-21T23:07:50.606Z,4.40
2019-03-21T23:10:19.564Z,3.97
2019-03-21T23:12:48.417Z,4.20
2019-03-21T23:15:17.305Z,3.90
2019-03-21T23:17:46.150Z,3.63
2019-03-21T23:20:15.839Z,4.30
2019-03-21T23:22:44.858Z,4.10
2019-03-21T23:25:16.607Z,3.90
2019-03-21T23:27:45.708Z,3.50
2019-03-21T23:30:16.773Z,3.93
2019-03-21T23:32:45.621Z,4.87
2019-03-21T23:35:15.457Z,5.43
2019-03-21T23:37:44.484Z,5.37
2019-03-21T23:40:14.682Z,5.70
2019-03-21T23:42:43.737Z,6.07
2019-03-21T23:45:14.228Z,7.43
2019-03-21T23:47:43.181Z,4.80
2019-03-21T23:50:14.342Z,9.47
2019-03-21T23:52:45.064Z,15.77
2019-03-21T23:55:14.330Z,13.53
2019-03-21T23:57:44.691Z,11.57
